Time;durP1;ratioP1;P1;durP2;ratioP2;P2;SDS_P1;SDS_P2;PMS_P1;PMS_P2;Temp;Humidity;BMP_temperature;BMP_pressure;BME280_temperature;BME280_humidity;BME280_pressure;Samples;Min_cycle;Max_cycle;Signal;HPM_P1;HPM_P2
2021/05/29 00:02:21;;;;;;;2.37;2.10;;;;;;;;;;4977109;28;20461;-89
2021/05/29 00:04:49;;;;;;;3.90;2.30;;;10.50;99.90;;;;;;4975335;28;20466;-91
2021/05/29 00:07:17;;;;;;;2.50;2.30;;;10.90;99.90;;;;;;4976279;28;20552;-89
2021/05/29 00:09:44;;;;;;;2.80;2.10;;;;;;;;;;4977139;28;20462;-90
2021/05/29 00:12:12;;;;;;;3.60;2.30;;;10.80;99.90;;;;;;4975836;28;20855;-89
2021/05/29 00:14:40;;;;;;;3.07;2.50;;;10.90;99.90;;;;;;4975794;28;20462;-90
2021/05/29 00:17:06;;;;;;;3.00;1.87;;;;;;;;;;4975928;28;20537;-90
2021/05/29 00:19:33;;;;;;;2.40;2.20;;;;;;;;;;4974974;28;20454;-91
2021/05/29 00:22:00;;;;;;;3.23;2.07;;;;;;;;;;4976749;28;20466;-91
2021/05/29 00:24:32;;;;;;;2.87;2.60;;;10.80;99.90;;;;;;4975473;28;20523;-90
2021/05/29 00:26:59;;;;;;;2.47;2.27;;;10.80;99.90;;;;;;4975209;28;20826;-90
2021/05/29 00:29:26;;;;;;;3.00;2.00;;;;;;;;;;4975753;28;20458;-92
2021/05/29 00:31:53;;;;;;;3.77;2.00;;;;;;;;;;4975618;28;20450;-91
2021/05/29 00:34:19;;;;;;;3.10;2.27;;;;;;;;;;4974584;28;20801;-90
2021/05/29 00:36:48;;;;;;;1.83;1.70;;;;;;;;;;4975075;28;20455;-92
2021/05/29 00:39:14;;;;;;;2.40;1.93;;;;;;;;;;4975536;28;20459;-92
2021/05/29 00:41:42;;;;;;;3.53;2.60;;;;;;;;;;4973342;28;20481;-91
2021/05/29 00:44:09;;;;;;;3.00;2.20;;;;;;;;;;4975175;28;20792;-90
2021/05/29 00:46:35;;;;;;;2.40;2.20;;;;;;;;;;4975155;28;20485;-91
2021/05/29 00:49:04;;;;;;;3.03;2.10;;;10.80;99.90;;;;;;4974599;28;20463;-91
2021/05/29 00:51:31;;;;;;;4.90;2.80;;;;;;;;;;4974865;28;20973;-93
2021/05/29 00:53:58;;;;;;;2.37;2.13;;;;;;;;;;4975657;28;20783;-90
2021/05/29 00:56:25;;;;;;;3.83;2.00;;;10.70;99.90;;;;;;4975227;28;20552;-91
2021/05/29 00:58:52;;;;;;;1.90;1.80;;;10.40;99.90;;;;;;4976240;28;20466;-89
2021/05/29 01:01:19;;;;;;;2.63;2.43;;;;;;;;;;4972300;28;20442;-90
2021/05/29 01:03:46;;;;;;;2.90;1.70;;;;;;;;;;4974290;28;21013;-90
2021/05/29 01:06:12;;;;;;;4.40;2.23;;;;;;;;;;4974778;28;20849;-91
2021/05/29 01:08:39;;;;;;;2.43;2.10;;;;;;;;;;4975488;28;20949;-91
2021/05/29 01:11:07;;;;;;;2.37;1.83;;;;;;;;;;4974815;28;20488;-90
2021/05/29 01:13:35;;;;;;;2.27;1.93;;;;;;;;;;4972897;28;20458;-92
2021/05/29 01:16:07;;;;;;;4.23;2.17;;;10.70;99.90;;;;;;4974183;28;20489;-92
2021/05/29 01:18:33;;;;;;;2.60;2.10;;;;;;;;;;4974161;28;20489;-90
2021/05/29 01:21:02;;;;;;;1.83;1.70;;;10.70;99.90;;;;;;4974380;28;20454;-91
2021/05/29 01:23:30;;;;;;;2.20;1.80;;;;;;;;;;4975768;28;20454;-89
2021/05/29 01:25:56;;;;;;;3.03;2.00;;;;;;;;;;4977026;28;20857;-90
2021/05/29 01:28:27;;;;;;;2.03;1.83;;;10.50;99.90;;;;;;4974252;28;20446;-92
2021/05/29 01:30:58;;;;;;;2.07;1.87;;;10.50;99.90;;;;;;4974177;28;20465;-89
2021/05/29 01:33:27;;;;;;;2.83;2.10;;;10.40;99.90;;;;;;4973437;28;20983;-91
2021/05/29 01:35:59;;;;;;;2.63;2.40;;;10.60;99.90;;;;;;4974269;28;20453;-89
2021/05/29 01:38:26;;;;;;;2.20;1.93;;;;;;;;;;4974345;28;20950;-89
2021/05/29 01:40:53;;;;;;;2.43;2.23;;;10.50;99.90;;;;;;4974159;28;20478;-91
2021/05/29 01:43:20;;;;;;;2.40;2.20;;;;;;;;;;4974380;28;20454;-89
2021/05/29 01:45:48;;;;;;;2.30;2.10;;;;;;;;;;4974169;28;20494;-90
2021/05/29 01:48:17;;;;;;;4.10;2.53;;;;;;;;;;4973627;28;20846;-89
2021/05/29 01:50:47;;;;;;;2.47;2.10;;;10.50;99.90;;;;;;4974250;28;20481;-90
2021/05/29 01:53:15;;;;;;;2.30;2.10;;;10.30;99.90;;;;;;4973998;28;20457;-91
2021/05/29 01:55:43;;;;;;;2.20;2.00;;;;;;;;;;4974268;28;20461;-90
2021/05/29 01:58:11;;;;;;;2.87;2.27;;;10.20;99.90;;;;;;4974214;28;20933;-90
2021/05/29 02:00:38;;;;;;;4.80;2.17;;;;;;;;;;4973816;28;20461;-90
2021/05/29 02:03:05;;;;;;;2.20;2.00;;;10.20;99.90;;;;;;4973966;28;20457;-90
2021/05/29 02:05:33;;;;;;;1.73;1.63;;;10.20;99.90;;;;;;4972942;28;20474;-92
2021/05/29 02:08:00;;;;;;;3.13;2.00;;;9.80;99.90;;;;;;4974035;28;20537;-91
2021/05/29 02:10:28;;;;;;;2.10;1.90;;;10.20;99.90;;;;;;4973866;28;20501;-90
2021/05/29 02:12:57;;;;;;;3.03;1.70;;;10.10;99.90;;;;;;4971634;28;20450;-92
2021/05/29 02:15:26;;;;;;;3.07;2.40;;;9.60;99.90;;;;;;4974614;28;20537;-91
2021/05/29 02:17:55;;;;;;;2.63;1.90;;;10.10;99.90;;;;;;4974273;28;20472;-91
2021/05/29 02:20:34;;;;;;;2.53;2.13;;;10.10;99.90;;;;;;4973483;28;20458;-90
2021/05/29 02:23:01;;;;;;;2.90;2.20;;;;;;;;;;4974296;28;20539;-91
2021/05/29 02:25:27;;;;;;;2.57;2.37;;;;;;;;;;4973884;28;20512;-91
2021/05/29 02:27:54;;;;;;;3.73;2.50;;;10.20;99.90;;;;;;4974328;28;20548;-91
2021/05/29 02:30:22;;;;;;;2.70;2.27;;;10.40;99.90;;;;;;4979414;28;20554;-90
2021/05/29 02:32:50;;;;;;;2.20;2.00;;;10.00;99.90;;;;;;4976801;28;20458;-91
2021/05/29 02:35:17;;;;;;;1.83;1.73;;;10.10;99.90;;;;;;4974258;28;20445;-91
2021/05/29 02:37:44;;;;;;;3.33;2.07;;;8.70;99.90;;;;;;4974491;28;20450;-91
2021/05/29 02:40:11;;;;;;;3.60;2.03;;;10.50;99.90;;;;;;4973939;28;20505;-90
2021/05/29 02:42:38;;;;;;;2.07;1.90;;;10.00;99.90;;;;;;4976270;28;20910;-91
2021/05/29 02:45:06;;;;;;;2.70;2.50;;;9.90;99.90;;;;;;4977313;28;20484;-90
2021/05/29 02:47:32;;;;;;;3.70;2.50;;;;;;;;;;4977454;28;20890;-91
2021/05/29 02:50:00;;;;;;;4.87;2.40;;;9.90;99.90;;;;;;4977129;28;20454;-90
2021/05/29 02:52:27;;;;;;;2.47;2.27;;;;;;;;;;4979634;28;20466;-90
2021/05/29 02:54:53;;;;;;;3.60;2.60;;;;;;;;;;4982381;28;20452;-90
2021/05/29 02:57:19;;;;;;;2.30;2.10;;;10.20;99.90;;;;;;4978422;28;20454;-90
2021/05/29 02:59:46;;;;;;;2.70;2.50;;;;;;;;;;4977309;28;20480;-92
2021/05/29 03:02:13;;;;;;;2.83;2.40;;;9.70;99.90;;;;;;4977603;28;20449;-91
2021/05/29 03:04:40;;;;;;;2.13;1.93;;;9.60;99.90;;;;;;4976285;28;20458;-90
2021/05/29 03:07:07;;;;;;;2.80;2.60;;;9.60;99.90;;;;;;4977437;28;20504;-90
2021/05/29 03:09:34;;;;;;;3.00;2.60;;;9.50;99.90;;;;;;4977539;28;20477;-90
2021/05/29 03:12:01;;;;;;;3.57;2.07;;;;;;;;;;4973035;28;20975;-91
2021/05/29 03:14:28;;;;;;;2.13;2.03;;;9.60;99.90;;;;;;4977246;28;20464;-90
2021/05/29 03:16:54;;;;;;;4.30;2.80;;;9.40;99.90;;;;;;4977315;28;20438;-90
2021/05/29 03:19:20;;;;;;;2.77;2.57;;;9.50;99.90;;;;;;4977267;28;20528;-90
2021/05/29 03:21:47;;;;;;;3.47;2.13;;;9.40;99.90;;;;;;4976732;28;20449;-90
2021/05/29 03:24:15;;;;;;;5.80;2.73;;;9.40;99.90;;;;;;4973453;28;20434;-90
2021/05/29 03:26:43;;;;;;;3.03;2.73;;;9.30;99.90;;;;;;4977551;28;20520;-91
2021/05/29 03:29:09;;;;;;;8.43;2.73;;;;;;;;;;4977212;28;20438;-90
2021/05/29 03:31:36;;;;;;;3.03;2.53;;;;;;;;;;4977493;28;20833;-90
2021/05/29 03:34:02;;;;;;;4.93;2.57;;;9.20;99.90;;;;;;4974889;28;20454;-90
2021/05/29 03:36:29;;;;;;;2.60;2.40;;;;;;;;;;4976678;28;20512;-90
2021/05/29 03:38:55;;;;;;;2.57;2.20;;;;;;;;;;4976738;28;20454;-91
2021/05/29 03:41:23;;;;;;;3.27;2.97;;;8.90;99.90;;;;;;4976545;28;20849;-90
2021/05/29 03:43:49;;;;;;;6.20;2.57;;;;;;;;;;4976237;28;20443;-90
2021/05/29 03:46:16;;;;;;;3.33;2.60;;;;;;;;;;4976471;28;21068;-90
2021/05/29 03:48:42;;;;;;;2.57;2.17;;;;;;;;;;4975848;28;20530;-91
2021/05/29 03:51:09;;;;;;;4.57;3.17;;;;;;;;;;4976563;28;20446;-91
2021/05/29 03:53:35;;;;;;;3.13;2.83;;;9.60;99.90;;;;;;4975720;28;20446;-89
2021/05/29 03:56:02;;;;;;;3.50;3.20;;;9.60;99.90;;;;;;4976369;28;20484;-90
2021/05/29 03:58:30;;;;;;;5.00;2.87;;;9.60;99.90;;;;;;4976291;28;20443;-91
2021/05/29 04:00:57;;;;;;;4.00;3.60;;;;;;;;;;4976493;28;20462;-90
2021/05/29 04:03:24;;;;;;;5.10;4.00;;;9.80;99.90;;;;;;4974802;28;20451;-91
2021/05/29 04:05:50;;;;;;;4.90;3.10;;;;;;;;;;4973793;28;20540;-90
2021/05/29 04:08:16;;;;;;;4.03;2.87;;;10.10;99.90;;;;;;4976184;28;20458;-90
2021/05/29 04:10:43;;;;;;;3.37;2.60;;;;;;;;;;4976030;28;20454;-92
2021/05/29 04:13:10;;;;;;;3.80;3.20;;;;;;;;;;4977231;28;20454;-90
2021/05/29 04:15:37;;;;;;;4.50;3.03;;;9.80;99.90;;;;;;4975860;28;20454;-90
2021/05/29 04:18:04;;;;;;;2.80;2.60;;;;;;;;;;4975863;28;20454;-90
2021/05/29 04:20:30;;;;;;;5.23;3.00;;;10.00;99.90;;;;;;4974537;28;20511;-89
2021/05/29 04:22:57;;;;;;;3.13;2.83;;;10.20;99.90;;;;;;4975766;28;20824;-91
2021/05/29 04:25:29;;;;;;;3.30;3.00;;;10.30;99.90;;;;;;4979022;28;20493;-90
2021/05/29 04:27:55;;;;;;;3.00;2.80;;;;;;;;;;4976186;28;20465;-91
2021/05/29 04:30:24;;;;;;;3.67;3.00;;;10.40;99.90;;;;;;4976474;28;20820;-90
2021/05/29 04:32:52;;;;;;;2.60;2.37;;;10.60;99.90;;;;;;4976925;28;20454;-90
2021/05/29 04:35:19;;;;;;;4.73;3.50;;;10.40;99.90;;;;;;4975057;28;20461;-90
2021/05/29 04:37:46;;;;;;;4.00;3.13;;;10.50;99.90;;;;;;4975594;28;20439;-91
2021/05/29 04:40:15;;;;;;;3.80;3.50;;;10.70;99.90;;;;;;4975200;28;20470;-91
2021/05/29 04:42:42;;;;;;;6.40;3.00;;;;;;;;;;4975606;28;20457;-90
2021/05/29 04:45:14;;;;;;;3.63;3.33;;;10.80;99.90;;;;;;4975374;28;20450;-89
2021/05/29 04:47:40;;;;;;;4.43;3.73;;;10.90;99.90;;;;;;4975474;28;20484;-91
2021/05/29 04:50:10;;;;;;;4.37;3.80;;;11.00;99.90;;;;;;4974634;28;20728;-89
2021/05/29 04:52:36;;;;;;;4.23;3.83;;;;;;;;;;4975452;28;20450;-90
2021/05/29 04:55:04;;;;;;;3.80;3.20;;;11.20;99.90;;;;;;4975397;28;20513;-89
2021/05/29 04:57:30;;;;;;;5.17;3.90;;;;;;;;;;4975198;28;20465;-91
2021/05/29 04:59:57;;;;;;;3.47;3.17;;;11.50;99.90;;;;;;4974952;28;20496;-89
2021/05/29 05:02:26;;;;;;;4.10;3.47;;;11.40;99.90;;;;;;4975273;28;20457;-89
2021/05/29 05:04:52;;;;;;;4.40;4.00;;;11.20;99.90;;;;;;4973206;28;20477;-90
2021/05/29 05:07:19;;;;;;;6.70;3.47;;;11.80;99.90;;;;;;4974952;28;20501;-90
2021/05/29 05:09:46;;;;;;;3.90;3.43;;;;;;;;;;4975108;28;20450;-89
2021/05/29 05:12:13;;;;;;;4.10;3.43;;;;;;;;;;4975338;28;20517;-90
2021/05/29 05:14:40;;;;;;;2.93;2.50;;;;;;;;;;4974727;28;20465;-90
2021/05/29 05:17:06;;;;;;;5.30;3.13;;;12.30;99.90;;;;;;4975869;28;20561;-91
2021/05/29 05:19:33;;;;;;;5.03;2.80;;;12.50;99.90;;;;;;4969797;28;20485;-91
2021/05/29 05:21:59;;;;;;;3.10;2.83;;;;;;;;;;4975474;28;20461;-92
2021/05/29 05:24:26;;;;;;;4.13;3.07;;;12.60;99.90;;;;;;4974496;28;20466;-89
2021/05/29 05:26:53;;;;;;;6.23;2.67;;;;;;;;;;4975065;28;21035;-87
2021/05/29 05:29:19;;;;;;;4.27;2.60;;;13.10;99.90;;;;;;4976041;28;20454;-89
2021/05/29 05:31:46;;;;;;;1.80;1.70;;;13.70;99.90;;;;;;4974467;28;21017;-88
2021/05/29 05:34:12;;;;;;;3.70;2.53;;;;;;;;;;4973769;28;20808;-91
2021/05/29 05:36:40;;;;;;;2.77;2.57;;;14.70;99.90;;;;;;4975356;28;20443;-90
2021/05/29 05:39:08;;;;;;;2.53;1.90;;;15.70;99.90;;;;;;4973262;28;20608;-88
2021/05/29 05:41:36;;;;;;;4.23;2.30;;;15.90;99.90;;;;;;4975990;28;20478;-88
2021/05/29 05:44:02;;;;;;;2.50;2.30;;;16.80;99.90;;;;;;4992266;28;20442;-89
2021/05/29 05:46:32;;;;;;;3.40;2.40;;;16.80;99.50;;;;;;4968996;28;20501;-93
2021/05/29 05:48:58;;;;;;;2.90;2.10;;;16.60;99.90;;;;;;4973353;28;20490;-90
2021/05/29 05:51:26;;;;;;;1.83;1.73;;;;;;;;;;4974607;28;20454;-93
2021/05/29 05:53:52;;;;;;;2.30;2.07;;;17.30;99.90;;;;;;4974177;28;20496;-90
2021/05/29 05:56:25;;;;;;;1.90;1.80;;;17.30;99.90;;;;;;4975821;28;20460;-91
2021/05/29 05:58:54;;;;;;;2.70;1.53;;;17.10;99.90;;;;;;4973825;28;20780;-91
2021/05/29 06:01:22;;;;;;;2.90;2.10;;;;;;;;;;4974022;28;20532;-91
2021/05/29 06:03:48;;;;;;;2.10;1.90;;;17.00;99.90;;;;;;4973052;28;20453;-90
2021/05/29 06:06:15;;;;;;;1.93;1.83;;;;;;;;;;4974486;28;20481;-88
2021/05/29 06:08:42;;;;;;;4.90;2.17;;;;;;;;;;4973830;28;20799;-90
2021/05/29 06:11:08;;;;;;;2.43;2.20;;;;;;;;;;4974264;28;20532;-90
2021/05/29 06:19:11;;;;;;;3.30;2.27;;;17.80;99.90;;;;;;4977088;28;20536;-90
2021/05/29 06:21:38;;;;;;;2.80;2.23;;;17.70;99.90;;;;;;4978096;28;20458;-91
2021/05/29 06:24:06;;;;;;;2.93;2.57;;;17.40;99.90;;;;;;4977963;28;20485;-93
2021/05/29 06:26:33;;;;;;;2.53;2.10;;;;;;;;;;4979746;28;20527;-91
2021/05/29 06:28:59;;;;;;;3.57;2.80;;;18.40;99.90;;;;;;4978256;28;20465;-93
2021/05/29 06:31:26;;;;;;;2.80;2.47;;;18.60;99.90;;;;;;4978009;28;20828;-90
2021/05/29 06:33:53;;;;;;;2.70;2.10;;;18.50;99.90;;;;;;4978672;28;20450;-92
2021/05/29 06:36:19;;;;;;;3.60;2.43;;;18.30;99.90;;;;;;4978494;28;20453;-92
2021/05/29 06:38:46;;;;;;;2.70;2.40;;;;;;;;;;4978654;28;20606;-92
2021/05/29 06:41:12;;;;;;;3.40;2.33;;;17.50;99.90;;;;;;4977329;28;20482;-89
2021/05/29 06:43:38;;;;;;;2.27;2.07;;;17.30;99.90;;;;;;4977751;28;20462;-90
2021/05/29 06:46:05;;;;;;;2.40;2.13;;;;;;;;;;4978834;28;20494;-90
2021/05/29 06:48:32;;;;;;;2.90;2.43;;;18.30;99.90;;;;;;4977581;28;20805;-90
2021/05/29 06:50:59;;;;;;;2.20;2.00;;;;;;;;;;4980224;28;20512;-91
2021/05/29 06:53:28;;;;;;;4.47;2.50;;;19.20;96.30;;;;;;4977673;28;20441;-90
2021/05/29 06:58:50;;;;;;;1.77;1.63;;;18.50;97.00;;;;;;4977093;28;20441;-87
2021/05/29 07:01:18;;;;;;;2.07;1.87;;;18.90;97.90;;;;;;4976767;28;20957;-87
2021/05/29 07:03:46;;;;;;;3.37;2.10;;;18.70;97.70;;;;;;4972757;28;20454;-88
2021/05/29 07:06:13;;;;;;;2.30;2.07;;;;;;;;;;4976797;28;20493;-89
2021/05/29 07:08:39;;;;;;;3.37;2.23;;;19.00;98.30;;;;;;4976862;28;20468;-89
2021/05/29 07:11:06;;;;;;;3.40;2.47;;;18.80;98.40;;;;;;4976740;28;20450;-88
2021/05/29 07:13:33;;;;;;;2.40;1.73;;;19.50;99.80;;;;;;4976503;28;20821;-92
2021/05/29 07:16:00;;;;;;;2.97;2.70;;;19.90;99.40;;;;;;4977098;28;20524;-91
2021/05/29 07:18:30;;;;;;;4.17;2.33;;;19.50;99.90;;;;;;4975615;28;20453;-90
2021/05/29 07:20:57;;;;;;;4.60;2.40;;;19.40;99.90;;;;;;4978377;28;20942;-93
2021/05/29 07:23:24;;;;;;;2.70;2.50;;;;;;;;;;4977103;28;20474;-92
2021/05/29 07:25:51;;;;;;;2.20;2.00;;;19.70;99.90;;;;;;4976816;28;20493;-90
2021/05/29 07:28:18;;;;;;;3.83;1.83;;;19.80;96.80;;;;;;4977613;28;20450;-91
2021/05/29 07:30:44;;;;;;;2.80;2.60;;;19.00;96.40;;;;;;4974288;28;20453;-89
2021/05/29 07:33:10;;;;;;;4.57;2.37;;;19.40;97.40;;;;;;4972799;28;20450;-90
2021/05/29 07:35:36;;;;;;;5.30;2.80;;;19.30;99.90;;;;;;4973153;28;20480;-88
2021/05/29 07:38:03;;;;;;;2.03;1.83;;;19.30;99.90;;;;;;4974451;28;20450;-91
2021/05/29 07:40:30;;;;;;;3.13;2.10;;;19.60;97.80;;;;;;4973681;28;20477;-91
2021/05/29 07:42:57;;;;;;;2.37;2.17;;;19.70;99.20;;;;;;4977438;28;20866;-88
2021/05/29 07:45:23;;;;;;;4.17;2.30;;;;;;;;;;4976545;28;20469;-93
2021/05/29 07:47:50;;;;;;;2.60;2.33;;;19.90;98.90;;;;;;4976290;28;20516;-95
2021/05/29 07:50:17;;;;;;;2.90;2.70;;;;;;;;;;4974968;28;20450;-89
2021/05/29 07:52:44;;;;;;;2.90;2.70;;;;;;;;;;4976724;28;20450;-93
2021/05/29 07:55:13;;;;;;;2.60;2.40;;;20.90;98.00;;;;;;4976984;28;20458;-93
2021/05/29 07:57:40;;;;;;;4.87;2.10;;;21.00;93.30;;;;;;4976789;28;20508;-93
2021/05/29 08:00:10;;;;;;;2.10;1.80;;;20.60;99.90;;;;;;4976582;28;20457;-92
2021/05/29 08:02:37;;;;;;;2.00;1.80;;;20.60;92.70;;;;;;4972488;28;20450;-89
2021/05/29 08:05:05;;;;;;;2.10;1.57;;;20.30;91.50;;;;;;4970904;28;20453;-93
2021/05/29 08:07:31;;;;;;;1.70;1.60;;;19.90;96.20;;;;;;4976997;28;20523;-91
2021/05/29 08:09:58;;;;;;;2.13;1.93;;;20.70;92.40;;;;;;4975720;28;20497;-91
2021/05/29 08:12:25;;;;;;;4.80;2.13;;;20.40;92.60;;;;;;4975723;28;20485;-93
2021/05/29 08:14:52;;;;;;;1.67;1.57;;;20.60;97.40;;;;;;4977039;28;20462;-93
2021/05/29 08:17:18;;;;;;;1.70;1.60;;;;;;;;;;4976039;28;20928;-91
2021/05/29 08:19:45;;;;;;;2.80;1.90;;;;;;;;;;4975774;28;20461;-88
2021/05/29 08:22:11;;;;;;;1.77;1.67;;;20.50;94.40;;;;;;4975693;28;20455;-90
2021/05/29 08:24:38;;;;;;;1.93;1.77;;;;;;;;;;4975492;28;20970;-86
2021/05/29 08:27:05;;;;;;;1.90;1.80;;;22.00;97.20;;;;;;4975479;28;20498;-88
2021/05/29 08:29:32;;;;;;;2.33;1.50;;;22.00;95.20;;;;;;4975762;28;20628;-92
2021/05/29 08:31:59;;;;;;;1.60;1.50;;;;;;;;;;4975826;28;20446;-92
2021/05/29 08:34:26;;;;;;;1.60;1.50;;;;;;;;;;4975273;28;20458;-90
2021/05/29 08:36:52;;;;;;;1.77;1.57;;;23.30;88.10;;;;;;4975579;28;20450;-90
2021/05/29 08:39:18;;;;;;;1.70;1.60;;;;;;;;;;4975613;28;20446;-91
2021/05/29 08:41:45;;;;;;;2.13;1.60;;;;;;;;;;4975340;28;20478;-91
2021/05/29 08:44:12;;;;;;;1.50;1.37;;;;;;;;;;4975563;28;20500;-92
2021/05/29 08:46:39;;;;;;;2.20;2.00;;;20.90;89.00;;;;;;4976853;28;20525;-89
2021/05/29 08:49:07;;;;;;;1.50;1.40;;;21.40;71.70;;;;;;4974654;28;20825;-88
2021/05/29 08:51:34;;;;;;;1.50;1.40;;;;;;;;;;4976266;28;20450;-91
2021/05/29 08:54:01;;;;;;;1.63;1.47;;;21.10;73.30;;;;;;4981839;28;20461;-90
2021/05/29 08:56:28;;;;;;;2.53;1.80;;;20.80;72.00;;;;;;4991175;28;20454;-89
2021/05/29 08:58:55;;;;;;;2.30;2.13;;;20.10;88.40;;;;;;4976246;28;20458;-89
2021/05/29 09:01:26;;;;;;;2.50;2.10;;;20.60;90.30;;;;;;4975477;28;20446;-89
2021/05/29 09:03:55;;;;;;;2.30;2.10;;;20.80;75.70;;;;;;4973425;28;20446;-89
2021/05/29 09:06:40;;;;;;;2.40;1.90;;;21.70;95.10;;;;;;4974341;28;20501;-89
2021/05/29 09:09:09;;;;;;;2.77;2.40;;;22.30;94.60;;;;;;4975587;28;20465;-89
2021/05/29 09:11:40;;;;;;;2.40;1.83;;;22.70;91.50;;;;;;4973361;28;20470;-91
2021/05/29 09:14:43;;;;;;;1.80;1.70;;;22.30;78.50;;;;;;4975188;28;20461;-94
2021/05/29 09:17:14;;;;;;;2.00;1.87;;;22.50;83.10;;;;;;4974368;28;20458;-87
2021/05/29 09:20:07;;;;;;;2.33;1.70;;;22.80;72.00;;;;;;4973083;28;20466;-88
2021/05/29 09:22:37;;;;;;;2.37;1.50;;;21.80;75.60;;;;;;4960480;28;20482;-90
2021/05/29 09:25:10;;;;;;;3.70;1.40;;;22.20;71.00;;;;;;4972308;28;20452;-89
2021/05/29 09:27:38;;;;;;;1.93;1.77;;;22.70;82.40;;;;;;4974169;28;20498;-89
2021/05/29 09:30:07;;;;;;;1.13;1.03;;;21.50;81.80;;;;;;4973824;28;20504;-88
2021/05/29 09:32:35;;;;;;;1.50;1.40;;;22.70;68.60;;;;;;4970037;28;20485;-89
2021/05/29 09:35:08;;;;;;;2.00;1.47;;;22.90;90.20;;;;;;4972986;28;20454;-87
2021/05/29 09:37:36;;;;;;;1.80;1.43;;;22.40;88.20;;;;;;4974038;28;20494;-88
2021/05/29 09:40:06;;;;;;;3.20;1.70;;;23.50;69.10;;;;;;4974885;28;20486;-88
2021/05/29 09:42:34;;;;;;;5.00;1.70;;;21.40;66.00;;;;;;4974151;28;20521;-88
2021/05/29 09:45:19;;;;;;;2.40;1.47;;;22.20;65.70;;;;;;4973996;28;20939;-86
2021/05/29 09:48:10;;;;;;;2.00;1.50;;;22.70;92.50;;;;;;4973883;28;20940;-88
2021/05/29 09:50:54;;;;;;;3.17;1.77;;;22.50;91.20;;;;;;4972915;28;20456;-89
2021/05/29 09:53:26;;;;;;;1.90;1.80;;;22.90;92.10;;;;;;4973440;28;20462;-88
2021/05/29 09:55:52;;;;;;;2.43;1.70;;;23.80;82.40;;;;;;4971483;28;20513;-88
2021/05/29 09:58:18;;;;;;;7.67;1.57;;;23.80;86.90;;;;;;4973783;28;20453;-88
2021/05/29 10:00:46;;;;;;;1.93;1.80;;;23.90;72.50;;;;;;4973927;28;20446;-89
2021/05/29 10:03:13;;;;;;;1.97;1.77;;;;;;;;;;4970915;28;20442;-88
2021/05/29 10:05:42;;;;;;;4.40;2.13;;;24.30;66.60;;;;;;4973406;28;20504;-90
2021/05/29 10:08:12;;;;;;;2.20;2.00;;;25.10;71.80;;;;;;4973979;28;20837;-88
2021/05/29 10:10:39;;;;;;;1.83;1.70;;;;;;;;;;4973886;28;20930;-88
2021/05/29 10:13:06;;;;;;;2.23;1.80;;;;;;;;;;4970986;28;20458;-88
2021/05/29 10:15:32;;;;;;;2.70;2.30;;;;;;;;;;4973568;28;20913;-89
2021/05/29 10:18:02;;;;;;;2.33;1.63;;;22.40;73.30;;;;;;4973516;28;20819;-89
2021/05/29 10:20:29;;;;;;;4.30;1.57;;;22.50;71.40;;;;;;4972200;28;20485;-89
2021/05/29 10:22:57;;;;;;;2.03;1.80;;;21.80;72.90;;;;;;4992016;28;20531;-87
2021/05/29 10:25:23;;;;;;;10.37;2.30;;;21.60;93.60;;;;;;4992714;28;20449;-87
2021/05/29 10:27:52;;;;;;;2.10;1.90;;;20.30;91.10;;;;;;4993965;28;20497;-88
2021/05/29 10:30:19;;;;;;;2.10;1.90;;;20.30;94.10;;;;;;4994159;28;20544;-89
2021/05/29 10:33:11;;;;;;;3.07;2.50;;;19.60;95.60;;;;;;4993067;28;20476;-89
2021/05/29 10:35:38;;;;;;;4.80;2.00;;;;;;;;;;4992588;28;20519;-87
2021/05/29 10:38:07;;;;;;;3.30;2.70;;;19.10;81.30;;;;;;4992938;28;20449;-87
2021/05/29 10:40:35;;;;;;;3.70;2.30;;;;;;;;;;4992565;28;20489;-89
2021/05/29 10:43:13;;;;;;;4.90;2.17;;;20.00;90.50;;;;;;4991814;28;20508;-92
2021/05/29 10:45:40;;;;;;;2.80;2.33;;;20.90;88.00;;;;;;4995004;28;20461;-90
2021/05/29 10:48:17;;;;;;;3.37;2.10;;;;;;;;;;5025581;23;20894;-93
2021/05/29 10:50:55;;;;;;;3.13;1.63;;;23.00;93.70;;;;;;4991715;28;20970;-87
2021/05/29 10:53:42;;;;;;;2.20;1.93;;;23.50;86.50;;;;;;4993100;28;20453;-90
2021/05/29 10:56:32;;;;;;;3.00;2.13;;;23.70;93.30;;;;;;4992826;28;20452;-90
2021/05/29 10:59:05;;;;;;;1.67;1.57;;;24.10;71.40;;;;;;4992781;28;20541;-87
2021/05/29 11:02:08;;;;;;;2.90;1.97;;;22.80;90.40;;;;;;4992445;28;20945;-87
2021/05/29 11:04:34;;;;;;;1.87;1.77;;;23.30;80.90;;;;;;4995117;28;20528;-88
2021/05/29 11:07:20;;;;;;;3.10;2.10;;;23.40;90.40;;;;;;4996050;28;20503;-87
2021/05/29 11:09:54;;;;;;;5.93;2.00;;;23.40;69.80;;;;;;4996162;28;20453;-87
2021/05/29 11:12:21;;;;;;;3.37;1.43;;;23.80;87.70;;;;;;4996198;28;20476;-87
2021/05/29 11:14:52;;;;;;;1.63;1.53;;;24.00;65.80;;;;;;4996066;28;20809;-87
2021/05/29 11:17:19;;;;;;;5.03;1.20;;;23.10;78.50;;;;;;4996128;28;20460;-90
2021/05/29 11:20:05;;;;;;;1.87;1.30;;;22.70;83.50;;;;;;4994852;28;20516;-86
2021/05/29 11:22:42;;;;;;;1.57;1.47;;;22.70;80.00;;;;;;4995839;28;21000;-85
2021/05/29 11:25:16;;;;;;;6.43;4.03;;;23.40;88.50;;;;;;4995851;28;20453;-87
2021/05/29 11:27:47;;;;;;;1.83;1.50;;;22.80;84.80;;;;;;4995591;28;20583;-89
2021/05/29 11:30:15;;;;;;;4.37;2.70;;;20.90;83.60;;;;;;4995915;28;20517;-87
2021/05/29 11:32:47;;;;;;;3.07;2.30;;;20.60;90.50;;;;;;4996649;28;20918;-88
2021/05/29 11:35:32;;;;;;;4.40;1.80;;;20.50;72.10;;;;;;4994541;28;20465;-87
2021/05/29 11:38:11;;;;;;;1.87;1.23;;;21.70;87.80;;;;;;4996254;28;20524;-94
2021/05/29 11:40:47;;;;;;;1.67;1.57;;;21.60;79.40;;;;;;4997889;28;20452;-93
2021/05/29 11:43:15;;;;;;;2.53;1.83;;;21.30;67.00;;;;;;4997252;28;20929;-92
2021/05/29 11:45:42;;;;;;;2.10;1.60;;;20.80;76.10;;;;;;4997258;28;20595;-91
2021/05/29 11:48:09;;;;;;;2.53;1.47;;;21.10;87.80;;;;;;4995534;28;20585;-88
2021/05/29 11:50:40;;;;;;;2.80;1.60;;;21.10;90.00;;;;;;4994730;28;20453;-85
2021/05/29 11:53:07;;;;;;;5.13;2.07;;;20.40;82.00;;;;;;4995537;28;20449;-85
2021/05/29 11:58:40;;;;;;;2.50;1.40;;;19.90;92.20;;;;;;5131604;27;20589;-84
2021/05/29 12:01:06;;;;;;;3.67;1.43;;;20.90;90.50;;;;;;5130943;27;20470;-85
2021/05/29 12:03:37;;;;;;;1.83;1.30;;;22.20;91.90;;;;;;5128162;27;20451;-83
2021/05/29 12:06:05;;;;;;;1.60;1.30;;;22.50;90.50;;;;;;5131435;28;20635;-85
2021/05/29 12:08:31;;;;;;;2.40;1.40;;;21.80;90.10;;;;;;5130864;27;20443;-84
2021/05/29 12:10:58;;;;;;;1.43;1.33;;;24.10;90.30;;;;;;5130700;27;20442;-84
2021/05/29 12:13:28;;;;;;;1.57;1.47;;;21.90;83.20;;;;;;5130825;27;20447;-86
2021/05/29 12:15:59;;;;;;;1.53;1.40;;;22.70;90.40;;;;;;5130681;27;20454;-88
2021/05/29 12:18:26;;;;;;;3.00;1.93;;;;;;;;;;5129556;27;20846;-89
2021/05/29 12:20:57;;;;;;;1.70;1.37;;;23.60;75.20;;;;;;5130612;27;20439;-83
2021/05/29 12:23:24;;;;;;;3.27;1.90;;;23.50;80.60;;;;;;5130366;27;20439;-85
2021/05/29 12:25:51;;;;;;;1.83;0.90;;;23.80;61.20;;;;;;5130453;27;20462;-84
2021/05/29 12:28:17;;;;;;;1.47;1.03;;;23.40;70.30;;;;;;5130428;27;20474;-83
2021/05/29 12:30:48;;;;;;;1.07;0.97;;;23.70;77.00;;;;;;5130235;27;20477;-84
2021/05/29 12:33:23;;;;;;;1.77;1.30;;;23.90;78.50;;;;;;5129280;27;20813;-85
2021/05/29 12:35:49;;;;;;;1.17;0.90;;;22.90;69.40;;;;;;5130115;27;20804;-86
2021/05/29 12:38:17;;;;;;;2.80;1.00;;;23.90;75.90;;;;;;5130070;27;20505;-85
2021/05/29 12:40:57;;;;;;;0.90;0.83;;;22.90;53.40;;;;;;5130133;27;20948;-85
2021/05/29 12:43:24;;;;;;;4.03;0.93;;;23.10;71.90;;;;;;5130037;27;20920;-84
2021/05/29 12:45:51;;;;;;;3.00;1.10;;;22.80;60.10;;;;;;5130015;27;20538;-85
2021/05/29 12:48:19;;;;;;;1.87;1.40;;;21.40;78.90;;;;;;5128788;27;20942;-85
2021/05/29 12:51:08;;;;;;;3.47;1.10;;;21.50;80.30;;;;;;5130021;27;20977;-85
2021/05/29 12:53:36;;;;;;;1.73;1.10;;;22.40;62.40;;;;;;5129947;27;20553;-84
2021/05/29 12:56:11;;;;;;;2.40;1.07;;;22.90;85.70;;;;;;5129705;27;20571;-84
2021/05/29 12:58:38;;;;;;;1.00;0.80;;;22.90;88.10;;;;;;5129873;27;20450;-84
2021/05/29 13:01:31;;;;;;;1.17;1.07;;;23.60;65.30;;;;;;5129390;27;20445;-84
2021/05/29 13:09:32;;;;;;;1.70;1.40;;;23.70;64.40;;;;;;5117896;28;20435;-86
2021/05/29 13:12:09;;;;;;;1.53;1.43;;;23.60;83.10;;;;;;5116012;28;20448;-84
2021/05/29 13:14:36;;;;;;;1.10;0.80;;;22.60;84.10;;;;;;5115527;28;20439;-84
2021/05/29 13:17:05;;;;;;;1.20;1.00;;;22.20;86.20;;;;;;5115391;28;20495;-85
2021/05/29 13:19:44;;;;;;;1.60;0.87;;;21.70;63.20;;;;;;5114284;28;20439;-85
2021/05/29 13:22:17;;;;;;;1.83;0.93;;;21.30;77.70;;;;;;5115649;28;20565;-84
2021/05/29 13:24:48;;;;;;;1.83;1.00;;;21.00;87.20;;;;;;5115522;28;20491;-86
2021/05/29 13:27:16;;;;;;;1.90;1.00;;;21.00;80.30;;;;;;5115748;28;20451;-86
2021/05/29 13:29:43;;;;;;;1.73;1.10;;;;;;;;;;5116447;28;20446;-86
2021/05/29 13:32:10;;;;;;;1.30;1.10;;;22.40;90.10;;;;;;5115925;28;20448;-89
2021/05/29 13:34:37;;;;;;;1.40;1.30;;;22.10;75.50;;;;;;5114197;28;20494;-87
2021/05/29 13:37:04;;;;;;;1.50;1.00;;;22.40;86.60;;;;;;5115343;28;20491;-86
2021/05/29 13:39:30;;;;;;;1.20;1.00;;;;;;;;;;5115269;28;20457;-86
2021/05/29 13:41:58;;;;;;;1.10;0.80;;;23.10;79.40;;;;;;5115364;28;20444;-85
2021/05/29 13:44:24;;;;;;;1.20;0.87;;;23.60;77.40;;;;;;5115403;28;20455;-86